Time;durP1;ratioP1;P1;durP2;ratioP2;P2;SDS_P1;SDS_P2;PMS_P1;PMS_P2;Temp;Humidity;BMP_temperature;BMP_pressure;BME280_temperature;BME280_humidity;BME280_pressure;Samples;Min_cycle;Max_cycle;Signal;HPM_P1;HPM_P2
2022/09/20 00:01:15;;;;;;;4.90;2.60;;;11.10;99.90;;;;;;5053508;28;20456;-71
2022/09/20 00:03:43;;;;;;;3.40;2.60;;;11.00;99.90;;;;;;5052841;28;20539;-71
2022/09/20 00:06:12;;;;;;;4.63;2.80;;;11.10;99.90;;;;;;5052635;28;20456;-71
2022/09/20 00:08:38;;;;;;;4.43;3.00;;;11.20;99.90;;;;;;5063832;28;20427;-69
2022/09/20 00:11:08;;;;;;;2.20;1.83;;;11.10;99.90;;;;;;5072307;28;20454;-69
2022/09/20 00:13:36;;;;;;;3.53;2.60;;;11.10;99.90;;;;;;5072822;28;20438;-70
2022/09/20 00:16:08;;;;;;;4.93;2.90;;;11.20;99.90;;;;;;5072939;28;20400;-70
2022/09/20 00:18:33;;;;;;;3.27;2.73;;;11.20;99.90;;;;;;5073193;28;20512;-69
2022/09/20 00:20:59;;;;;;;3.47;2.77;;;11.30;99.90;;;;;;5073229;28;20515;-69
2022/09/20 00:23:25;;;;;;;5.50;2.63;;;11.20;99.90;;;;;;5071407;28;20190;-69
2022/09/20 00:25:58;;;;;;;6.60;2.63;;;11.20;99.90;;;;;;5072372;28;20713;-70
2022/09/20 00:28:24;;;;;;;4.67;2.50;;;11.20;99.90;;;;;;5072861;28;20220;-71
2022/09/20 00:30:51;;;;;;;2.70;1.83;;;11.30;99.90;;;;;;5073299;28;20918;-71
2022/09/20 00:33:17;;;;;;;4.53;2.50;;;11.30;99.90;;;;;;5054204;28;20442;-70
2022/09/20 00:35:44;;;;;;;10.40;2.90;;;11.30;99.90;;;;;;5052647;28;20955;-70
2022/09/20 00:38:10;;;;;;;5.10;2.93;;;11.20;99.90;;;;;;5052729;28;20169;-70
2022/09/20 00:40:36;;;;;;;4.43;2.67;;;11.20;99.90;;;;;;5052500;28;20484;-70
2022/09/20 00:43:02;;;;;;;3.20;2.73;;;11.10;99.90;;;;;;5052598;28;20437;-70
2022/09/20 00:45:29;;;;;;;5.67;2.43;;;11.10;99.90;;;;;;5053312;28;20844;-70
2022/09/20 00:48:00;;;;;;;3.90;2.10;;;11.10;99.90;;;;;;5053505;28;20249;-70
2022/09/20 00:50:40;;;;;;;2.97;2.63;;;11.20;99.90;;;;;;5057074;28;20400;-72
2022/09/20 00:53:15;;;;;;;3.90;2.37;;;11.20;99.90;;;;;;5056568;28;20849;-70
2022/09/20 00:55:50;;;;;;;3.17;2.30;;;11.10;99.90;;;;;;5056482;28;20415;-72
2022/09/20 00:58:18;;;;;;;3.00;2.27;;;11.10;99.90;;;;;;5056448;28;20779;-71
2022/09/20 01:00:45;;;;;;;4.10;2.80;;;11.10;99.90;;;;;;5074273;28;20460;-70
2022/09/20 01:03:13;;;;;;;6.47;2.50;;;11.00;99.90;;;;;;5055699;28;20543;-71
2022/09/20 01:05:40;;;;;;;7.30;2.50;;;11.00;99.90;;;;;;5056209;28;20480;-70
2022/09/20 01:08:07;;;;;;;3.13;2.43;;;11.10;99.90;;;;;;5055961;28;20447;-70
2022/09/20 01:10:32;;;;;;;3.10;2.70;;;11.10;99.90;;;;;;5055786;28;20412;-70
2022/09/20 01:12:58;;;;;;;3.90;2.90;;;11.20;99.90;;;;;;5055958;28;20417;-70
2022/09/20 01:15:26;;;;;;;2.57;2.17;;;11.20;99.90;;;;;;5063518;28;20171;-70
2022/09/20 01:17:55;;;;;;;3.40;2.13;;;11.20;99.90;;;;;;5075505;28;20167;-70
2022/09/20 01:20:29;;;;;;;2.80;1.97;;;11.20;99.90;;;;;;5075583;28;20916;-70
2022/09/20 01:23:30;;;;;;;2.73;2.10;;;11.20;99.90;;;;;;5075483;28;20456;-70
2022/09/20 01:26:08;;;;;;;11.10;3.00;;;11.30;99.90;;;;;;5064750;28;20412;-71
2022/09/20 01:28:34;;;;;;;3.10;1.97;;;11.30;99.90;;;;;;5075766;28;20382;-71
2022/09/20 01:31:02;;;;;;;2.23;2.03;;;11.30;99.90;;;;;;5075184;28;20408;-69
2022/09/20 01:33:34;;;;;;;2.63;2.43;;;11.30;99.90;;;;;;5056782;28;20439;-70
2022/09/20 01:36:03;;;;;;;4.50;2.50;;;11.40;99.90;;;;;;5055004;28;20786;-71
2022/09/20 01:38:44;;;;;;;4.50;2.43;;;11.50;99.90;;;;;;5055553;28;20444;-71
2022/09/20 01:41:13;;;;;;;6.43;2.77;;;11.50;99.90;;;;;;5063465;28;20989;-70
2022/09/20 01:43:51;;;;;;;2.53;1.80;;;11.40;99.90;;;;;;5074851;28;20539;-71
2022/09/20 01:46:31;;;;;;;2.50;2.20;;;11.50;99.90;;;;;;5074935;28;20460;-70
2022/09/20 01:49:21;;;;;;;8.83;2.10;;;11.50;99.90;;;;;;5073358;28;20424;-70
2022/09/20 01:51:56;;;;;;;9.93;2.40;;;11.50;99.90;;;;;;5054139;28;20420;-71
2022/09/20 01:54:58;;;;;;;4.87;2.23;;;11.50;99.90;;;;;;5054639;28;20431;-70
2022/09/20 01:58:01;;;;;;;4.70;2.67;;;11.50;99.90;;;;;;5055114;28;20382;-71
2022/09/20 02:00:37;;;;;;;6.63;3.07;;;11.50;99.90;;;;;;5052218;28;20454;-71
2022/09/20 02:03:12;;;;;;;3.90;2.37;;;11.50;99.90;;;;;;5054780;28;20934;-71
2022/09/20 02:06:04;;;;;;;3.20;2.00;;;11.40;99.90;;;;;;5054443;28;20420;-71
2022/09/20 02:08:54;;;;;;;3.50;2.33;;;11.40;99.90;;;;;;5055416;28;20819;-71
2022/09/20 02:11:32;;;;;;;3.40;2.37;;;11.50;99.90;;;;;;5060960;28;20415;-70
2022/09/20 02:14:05;;;;;;;5.33;2.13;;;11.40;99.90;;;;;;5074768;28;20416;-71
2022/09/20 02:16:33;;;;;;;2.63;2.10;;;11.40;99.90;;;;;;5075169;28;20385;-71
2022/09/20 02:19:09;;;;;;;3.43;1.80;;;11.50;99.90;;;;;;5074628;28;20404;-71
2022/09/20 02:22:14;;;;;;;2.80;1.70;;;11.50;99.90;;;;;;5066720;28;20509;-71
2022/09/20 02:25:17;;;;;;;5.50;2.07;;;11.60;99.90;;;;;;5051687;28;20847;-71
2022/09/20 02:28:06;;;;;;;5.33;2.43;;;11.60;99.90;;;;;;5054866;28;20397;-71
2022/09/20 02:31:05;;;;;;;5.17;2.10;;;11.60;99.90;;;;;;5054567;28;20405;-71
2022/09/20 02:34:06;;;;;;;4.40;2.27;;;11.70;99.90;;;;;;5068777;28;20953;-70
2022/09/20 02:36:54;;;;;;;3.27;2.00;;;11.70;99.90;;;;;;5043596;28;20416;-70
2022/09/20 02:39:43;;;;;;;4.70;1.77;;;11.80;99.90;;;;;;5072447;28;20436;-70
2022/09/20 02:42:24;;;;;;;3.00;1.73;;;11.70;99.90;;;;;;5073863;28;20457;-70
2022/09/20 02:45:03;;;;;;;4.33;2.00;;;11.80;99.90;;;;;;5073685;28;20380;-70
2022/09/20 02:47:39;;;;;;;4.73;2.47;;;11.80;99.90;;;;;;5073400;28;20396;-70
2022/09/20 02:50:21;;;;;;;4.97;2.23;;;11.80;99.90;;;;;;5054452;28;20424;-71
2022/09/20 02:52:55;;;;;;;3.83;2.43;;;11.80;99.90;;;;;;5053876;28;20798;-72
2022/09/20 02:56:13;;;;;;;2.83;2.13;;;11.80;99.90;;;;;;5053510;28;20404;-71
2022/09/20 02:59:00;;;;;;;5.10;2.20;;;11.80;99.90;;;;;;5020258;28;20409;-71
2022/09/20 03:01:32;;;;;;;4.37;2.20;;;11.70;99.90;;;;;;5066441;28;20466;-71
2022/09/20 03:04:17;;;;;;;3.83;2.20;;;11.80;99.90;;;;;;5074864;22;21032;-66
2022/09/20 03:06:59;;;;;;;3.40;2.30;;;11.80;99.90;;;;;;5052710;28;20394;-68
2022/09/20 03:09:25;;;;;;;3.73;1.67;;;11.80;99.90;;;;;;5053246;28;20488;-67
2022/09/20 03:12:05;;;;;;;3.77;2.10;;;11.60;99.90;;;;;;5052623;28;20866;-67
2022/09/20 03:14:46;;;;;;;4.17;2.33;;;11.60;99.90;;;;;;5052925;28;20562;-66
2022/09/20 03:17:28;;;;;;;3.10;2.17;;;11.50;99.90;;;;;;5052678;28;20432;-66
2022/09/20 03:20:15;;;;;;;3.57;2.10;;;11.50;99.90;;;;;;5053065;28;20531;-67
2022/09/20 03:22:59;;;;;;;4.93;2.43;;;11.50;99.90;;;;;;5053191;28;20490;-67
2022/09/20 03:26:06;;;;;;;2.83;2.20;;;11.50;99.90;;;;;;5053263;28;20390;-67
2022/09/20 03:28:44;;;;;;;2.60;2.13;;;11.40;99.90;;;;;;4972574;28;20432;-67
2022/09/20 03:31:15;;;;;;;6.07;2.57;;;11.30;99.90;;;;;;5045585;28;20543;-67
2022/09/20 03:34:29;;;;;;;4.43;2.30;;;11.30;99.90;;;;;;5051564;28;20446;-66
2022/09/20 03:36:54;;;;;;;4.40;2.50;;;11.40;99.90;;;;;;5031323;28;20413;-66
2022/09/20 03:39:47;;;;;;;3.40;2.23;;;11.30;99.90;;;;;;5052355;28;20500;-66
2022/09/20 03:42:21;;;;;;;4.33;2.10;;;11.30;99.90;;;;;;5052490;28;20502;-66
2022/09/20 03:45:05;;;;;;;5.63;2.27;;;11.40;99.90;;;;;;5053047;28;20860;-67
2022/09/20 03:47:33;;;;;;;6.00;2.10;;;11.50;99.90;;;;;;5052314;28;20917;-67
2022/09/20 03:50:25;;;;;;;5.47;1.90;;;11.50;99.90;;;;;;5052631;28;20455;-67
2022/09/20 03:53:18;;;;;;;3.83;2.50;;;11.50;99.90;;;;;;5034534;28;20487;-67
2022/09/20 03:56:15;;;;;;;4.30;2.13;;;11.50;99.90;;;;;;5053019;28;20399;-67
2022/09/20 03:58:55;;;;;;;6.77;2.13;;;11.50;99.90;;;;;;5052559;28;20488;-67
2022/09/20 04:01:44;;;;;;;4.53;2.83;;;11.50;99.90;;;;;;5053138;28;20390;-67
2022/09/20 04:04:50;;;;;;;3.43;2.20;;;11.60;99.90;;;;;;5051873;28;20960;-67
2022/09/20 04:07:53;;;;;;;9.87;2.73;;;11.50;99.90;;;;;;4952599;29;20429;-67
2022/09/20 04:10:45;;;;;;;9.23;2.07;;;11.50;99.90;;;;;;5052797;28;20475;-67
2022/09/20 04:13:32;;;;;;;6.40;2.37;;;11.50;99.90;;;;;;5052819;28;20473;-67
2022/09/20 04:16:05;;;;;;;4.07;2.50;;;11.50;99.90;;;;;;5047609;28;20421;-69
2022/09/20 04:19:03;;;;;;;4.07;2.07;;;11.50;99.90;;;;;;5052229;28;20466;-67
2022/09/20 04:21:34;;;;;;;3.47;2.07;;;11.50;99.90;;;;;;5013572;28;20446;-68
2022/09/20 04:24:41;;;;;;;5.00;2.37;;;11.60;99.90;;;;;;5055264;28;20483;-68
2022/09/20 04:27:16;;;;;;;6.60;2.40;;;11.60;99.90;;;;;;5051308;28;20580;-67
2022/09/20 04:29:57;;;;;;;6.47;2.90;;;11.60;99.90;;;;;;5056105;28;20395;-67
2022/09/20 04:32:43;;;;;;;3.10;2.57;;;11.70;99.90;;;;;;5052525;28;20731;-67
2022/09/20 04:38:20;;;;;;;2.30;2.00;;;11.80;99.90;;;;;;5036184;28;20369;-67
2022/09/20 04:41:17;;;;;;;5.47;2.90;;;11.80;99.90;;;;;;5035684;28;20535;-66
2022/09/20 04:44:15;;;;;;;4.97;2.73;;;11.80;99.90;;;;;;5035742;28;20423;-67
2022/09/20 04:47:07;;;;;;;4.97;2.30;;;11.90;99.90;;;;;;5035757;28;20771;-67
2022/09/20 04:50:00;;;;;;;3.40;2.70;;;12.00;99.90;;;;;;4984655;28;20500;-67
2022/09/20 04:53:07;;;;;;;6.03;2.93;;;11.80;99.90;;;;;;5035895;28;20386;-66
2022/09/20 04:55:54;;;;;;;3.30;2.97;;;11.80;99.90;;;;;;5045288;28;20428;-67
2022/09/20 04:58:35;;;;;;;6.67;3.20;;;11.70;99.90;;;;;;5055714;28;20381;-67
2022/09/20 05:01:15;;;;;;;6.63;3.47;;;11.80;99.90;;;;;;5041240;28;20639;-67
2022/09/20 05:04:13;;;;;;;5.90;3.30;;;11.90;99.90;;;;;;5035101;28;20442;-66
2022/09/20 05:07:00;;;;;;;4.97;3.37;;;11.90;99.90;;;;;;5036728;28;20976;-67
2022/09/20 05:09:29;;;;;;;4.30;2.80;;;12.00;99.90;;;;;;5054785;28;20405;-68
2022/09/20 05:12:16;;;;;;;3.53;2.60;;;12.00;99.90;;;;;;5046666;28;20425;-67
2022/09/20 05:15:06;;;;;;;4.47;3.20;;;12.00;99.90;;;;;;5045297;28;20413;-67
2022/09/20 05:17:54;;;;;;;3.47;3.17;;;12.00;99.90;;;;;;5025183;28;20411;-66
2022/09/20 05:20:39;;;;;;;7.70;3.50;;;12.00;99.90;;;;;;5035278;28;20916;-67
2022/09/20 05:23:22;;;;;;;4.73;3.40;;;12.10;99.90;;;;;;5035159;28;20421;-67
2022/09/20 05:26:14;;;;;;;7.07;3.40;;;12.10;99.90;;;;;;5035176;28;20395;-66
2022/09/20 05:29:01;;;;;;;3.40;3.10;;;12.10;99.90;;;;;;5034924;28;20760;-66
2022/09/20 05:31:50;;;;;;;9.50;3.70;;;12.10;99.90;;;;;;5035060;28;20496;-67
2022/09/20 05:34:54;;;;;;;7.20;3.93;;;12.00;99.90;;;;;;5033818;28;20442;-67
2022/09/20 05:37:38;;;;;;;4.40;2.93;;;12.10;99.90;;;;;;5020759;28;20412;-66
2022/09/20 05:40:29;;;;;;;4.23;3.60;;;12.10;99.90;;;;;;5038984;28;20506;-67
2022/09/20 05:43:10;;;;;;;4.27;3.30;;;12.00;99.90;;;;;;5054401;28;20503;-67
2022/09/20 05:46:00;;;;;;;5.77;3.87;;;12.00;99.90;;;;;;5044910;28;20446;-67
2022/09/20 05:48:55;;;;;;;6.50;3.57;;;12.00;99.90;;;;;;5034736;28;20406;-68
2022/09/20 05:52:01;;;;;;;3.80;2.80;;;11.90;99.90;;;;;;5044449;28;20745;-67
2022/09/20 05:54:35;;;;;;;7.47;4.30;;;12.00;99.90;;;;;;5053808;28;20590;-68
2022/09/20 05:57:44;;;;;;;7.87;3.80;;;11.90;99.90;;;;;;5019897;28;20916;-65
2022/09/20 06:00:20;;;;;;;4.40;3.30;;;11.90;99.90;;;;;;5034548;28;20431;-66
2022/09/20 06:03:16;;;;;;;6.33;4.00;;;11.90;99.90;;;;;;5033154;28;20463;-67
2022/09/20 06:06:03;;;;;;;4.70;3.53;;;12.00;99.90;;;;;;5033523;28;20386;-67
2022/09/20 06:09:18;;;;;;;4.97;3.40;;;12.00;99.90;;;;;;5033790;28;20497;-67
2022/09/20 06:12:16;;;;;;;9.30;5.10;;;11.90;99.90;;;;;;5002785;28;20409;-67
2022/09/20 06:14:45;;;;;;;4.73;3.70;;;12.10;99.90;;;;;;5050091;28;20413;-68
2022/09/20 06:17:27;;;;;;;5.70;3.90;;;12.20;99.90;;;;;;5053502;28;20397;-67
2022/09/20 06:20:08;;;;;;;5.27;4.20;;;12.20;99.90;;;;;;5053356;28;20511;-67
2022/09/20 06:22:47;;;;;;;8.00;3.70;;;12.10;99.90;;;;;;5053630;28;20403;-68
2022/09/20 06:25:24;;;;;;;4.90;3.60;;;12.10;99.90;;;;;;5053922;28;20381;-67
2022/09/20 06:28:24;;;;;;;5.50;3.83;;;12.20;99.90;;;;;;5053646;28;20384;-68
2022/09/20 06:30:51;;;;;;;4.57;3.67;;;12.30;99.90;;;;;;5052513;28;20428;-67
2022/09/20 06:33:21;;;;;;;8.20;5.17;;;12.40;99.90;;;;;;5045455;28;20450;-67
2022/09/20 06:41:36;;;;;;;7.80;5.23;;;12.20;99.90;;;;;;5033275;28;20432;-66
2022/09/20 06:44:04;;;;;;;7.37;4.83;;;12.20;99.90;;;;;;5033269;28;20896;-67
2022/09/20 06:46:34;;;;;;;5.17;4.47;;;12.10;99.90;;;;;;5032661;28;20167;-67
2022/09/20 06:49:01;;;;;;;5.53;4.80;;;12.10;99.90;;;;;;5032625;28;20383;-67
2022/09/20 06:51:32;;;;;;;5.30;3.80;;;12.10;99.90;;;;;;5032616;28;20404;-67
2022/09/20 06:53:58;;;;;;;9.03;5.70;;;11.90;99.90;;;;;;5033020;28;20429;-68
2022/09/20 06:56:29;;;;;;;11.00;5.20;;;11.90;99.90;;;;;;5033424;28;20764;-66
2022/09/20 06:58:55;;;;;;;8.30;4.03;;;12.00;99.90;;;;;;5033659;28;20163;-67
2022/09/20 07:01:21;;;;;;;6.50;4.40;;;11.90;99.90;;;;;;5032784;28;20460;-67
2022/09/20 07:03:47;;;;;;;9.57;5.10;;;11.80;99.90;;;;;;5032514;28;20322;-68
2022/09/20 07:06:18;;;;;;;6.57;5.10;;;12.00;99.90;;;;;;5032691;28;20900;-67
2022/09/20 07:08:45;;;;;;;6.03;4.10;;;12.00;99.90;;;;;;5037160;28;20163;-69
2022/09/20 07:11:14;;;;;;;10.10;5.17;;;12.00;99.90;;;;;;5052912;28;20401;-67
2022/09/20 07:13:40;;;;;;;11.03;4.30;;;12.10;99.90;;;;;;5044104;28;20509;-67
2022/09/20 07:16:07;;;;;;;10.40;4.63;;;11.90;99.90;;;;;;5032613;28;20832;-67
2022/09/20 07:18:33;;;;;;;7.93;5.00;;;11.80;99.90;;;;;;5032181;28;20171;-68
2022/09/20 07:21:00;;;;;;;8.30;4.57;;;11.90;99.90;;;;;;5032366;28;20451;-67
2022/09/20 07:23:28;;;;;;;14.13;5.30;;;12.00;99.90;;;;;;5032948;28;20426;-67
2022/09/20 07:25:56;;;;;;;6.93;3.83;;;11.90;99.90;;;;;;5032666;28;20430;-68
2022/09/20 07:28:22;;;;;;;5.63;4.33;;;12.10;99.90;;;;;;5032838;28;20483;-66
2022/09/20 07:30:48;;;;;;;8.43;4.90;;;12.30;99.90;;;;;;5032448;28;20538;-66
2022/09/20 07:33:20;;;;;;;7.93;4.40;;;12.10;99.90;;;;;;5037166;28;20536;-67
2022/09/20 07:35:47;;;;;;;9.60;4.97;;;12.10;99.90;;;;;;5052696;28;20926;-67
2022/09/20 07:38:14;;;;;;;7.17;4.97;;;12.30;99.90;;;;;;5052835;28;20547;-67
2022/09/20 07:40:40;;;;;;;19.53;10.37;;;12.40;99.90;;;;;;5052807;28;20453;-67
2022/09/20 07:43:05;;;;;;;7.33;5.07;;;12.60;99.90;;;;;;5052317;28;20915;-67
2022/09/20 07:45:33;;;;;;;5.77;5.07;;;12.70;99.90;;;;;;5052808;28;20170;-67
2022/09/20 07:47:58;;;;;;;11.93;5.67;;;12.70;99.90;;;;;;5052517;28;20512;-67
2022/09/20 07:50:24;;;;;;;10.57;5.07;;;12.40;99.90;;;;;;5052166;28;20410;-67
2022/09/20 07:52:50;;;;;;;9.07;5.70;;;12.30;99.90;;;;;;5052229;28;20201;-66
2022/09/20 07:55:15;;;;;;;6.97;4.63;;;12.40;99.90;;;;;;5052688;28;20170;-66
2022/09/20 07:57:41;;;;;;;8.47;7.10;;;12.50;99.90;;;;;;5053455;28;20175;-66
2022/09/20 08:00:08;;;;;;;8.37;4.70;;;12.50;99.90;;;;;;5050096;28;20285;-67
2022/09/20 08:02:34;;;;;;;13.03;6.03;;;12.40;99.90;;;;;;5036425;28;20410;-66
2022/09/20 08:05:00;;;;;;;12.63;4.90;;;12.50;99.90;;;;;;5036525;28;20404;-68
2022/09/20 08:07:25;;;;;;;11.50;3.63;;;12.80;99.90;;;;;;5048533;28;20174;-67
2022/09/20 08:09:51;;;;;;;5.70;3.30;;;13.20;99.90;;;;;;5036435;28;20632;-67
2022/09/20 08:12:18;;;;;;;9.27;3.97;;;13.40;99.90;;;;;;5036354;28;20177;-68
2022/09/20 08:14:44;;;;;;;4.93;2.70;;;13.50;99.90;;;;;;5036308;28;20322;-67
2022/09/20 08:17:10;;;;;;;7.13;3.40;;;13.30;99.90;;;;;;5036216;28;20549;-67
2022/09/20 08:19:36;;;;;;;9.63;5.40;;;13.40;99.90;;;;;;5036402;28;20204;-67
2022/09/20 08:22:01;;;;;;;9.30;3.70;;;13.50;99.90;;;;;;5036428;28;20485;-67
2022/09/20 08:24:27;;;;;;;5.23;2.70;;;13.40;99.90;;;;;;5036040;28;20190;-67
2022/09/20 08:26:53;;;;;;;10.90;2.73;;;13.20;99.90;;;;;;5018468;28;20170;-67
2022/09/20 08:29:18;;;;;;;5.53;2.33;;;13.00;99.90;;;;;;5036350;28;20444;-67
2022/09/20 08:31:45;;;;;;;6.37;2.30;;;12.90;99.90;;;;;;5055276;28;20275;-67
2022/09/20 08:34:13;;;;;;;3.67;2.50;;;13.10;99.90;;;;;;5053010;28;20211;-67
2022/09/20 08:36:43;;;;;;;7.20;3.60;;;13.00;99.90;;;;;;5044679;28;20443;-67
2022/09/20 08:39:08;;;;;;;5.60;2.73;;;13.00;99.90;;;;;;5035458;28;20399;-67
2022/09/20 08:41:41;;;;;;;6.30;2.60;;;13.10;99.90;;;;;;5036308;28;20413;-67
2022/09/20 08:44:15;;;;;;;11.10;4.40;;;13.20;99.90;;;;;;5035911;28;20468;-67
2022/09/20 08:46:47;;;;;;;7.00;2.60;;;13.50;99.90;;;;;;5035671;28;20444;-68
2022/09/20 08:49:24;;;;;;;5.33;2.27;;;13.50;99.90;;;;;;5035636;28;20767;-68
2022/09/20 08:51:50;;;;;;;5.57;2.10;;;13.60;99.90;;;;;;5035847;28;20393;-68
2022/09/20 08:54:16;;;;;;;4.27;2.33;;;13.50;99.90;;;;;;5035573;28;20418;-68
2022/09/20 08:56:44;;;;;;;6.40;2.60;;;13.60;99.90;;;;;;5035934;28;20218;-67
2022/09/20 08:59:16;;;;;;;5.47;2.20;;;13.70;99.90;;;;;;5035428;28;20412;-67
2022/09/20 09:01:42;;;;;;;5.83;2.47;;;13.70;99.90;;;;;;5044739;28;20446;-67
2022/09/20 09:04:14;;;;;;;7.23;3.37;;;13.90;99.90;;;;;;5067380;23;20491;-72
2022/09/20 09:06:41;;;;;;;5.17;2.73;;;14.30;99.90;;;;;;5073522;28;20175;-71
2022/09/20 09:09:10;;;;;;;8.47;2.20;;;14.40;99.90;;;;;;5075791;28;20425;-71
2022/09/20 09:11:39;;;;;;;5.10;2.63;;;14.50;99.90;;;;;;5076185;28;20392;-71
2022/09/20 09:17:08;;;;;;;3.50;2.23;;;14.40;99.90;;;;;;5059270;28;20940;-71
2022/09/20 09:19:57;;;;;;;7.00;2.60;;;14.70;99.90;;;;;;5055425;28;20451;-70
2022/09/20 09:22:23;;;;;;;6.07;2.23;;;14.80;99.90;;;;;;5055482;28;20526;-71
2022/09/20 09:25:09;;;;;;;5.17;2.27;;;14.70;99.90;;;;;;5054228;28;20467;-71
2022/09/20 09:28:08;;;;;;;4.03;2.17;;;14.60;99.90;;;;;;5054175;28;20178;-71
2022/09/20 09:30:42;;;;;;;7.13;3.27;;;14.20;99.90;;;;;;5044604;28;20940;-69
2022/09/20 09:33:27;;;;;;;5.37;2.13;;;14.10;99.90;;;;;;5055344;28;20480;-70
2022/09/20 09:35:57;;;;;;;9.27;3.00;;;14.10;99.90;;;;;;5066548;28;20418;-71
2022/09/20 09:38:26;;;;;;;6.47;2.30;;;14.30;99.90;;;;;;5075353;28;20403;-72
2022/09/20 09:41:00;;;;;;;3.83;2.00;;;14.50;99.90;;;;;;5075430;28;20440;-70
2022/09/20 09:43:31;;;;;;;4.50;2.30;;;14.40;99.90;;;;;;5055476;28;20414;-71
2022/09/20 09:46:17;;;;;;;3.20;1.93;;;14.50;99.90;;;;;;5055609;28;20490;-71
2022/09/20 09:48:48;;;;;;;4.83;2.30;;;14.80;99.90;;;;;;5055340;28;20377;-71
2022/09/20 09:51:19;;;;;;;7.43;2.70;;;14.80;99.90;;;;;;5055023;28;20402;-71
2022/09/20 09:53:46;;;;;;;5.60;1.87;;;14.70;99.90;;;;;;5053756;28;20450;-71
2022/09/20 09:57:01;;;;;;;5.40;2.03;;;14.60;99.90;;;;;;5053525;28;20833;-71
2022/09/20 09:59:56;;;;;;;4.50;2.63;;;14.40;99.90;;;;;;5044924;28;20431;-70
2022/09/20 10:02:48;;;;;;;4.80;2.37;;;14.30;99.90;;;;;;5055092;28;20393;-70
2022/09/20 10:05:28;;;;;;;6.43;2.27;;;14.50;99.90;;;;;;5054559;28;20487;-70
2022/09/20 10:08:18;;;;;;;4.67;2.40;;;14.60;99.90;;;;;;5055194;28;20385;-70
2022/09/20 10:11:00;;;;;;;6.63;2.00;;;14.50;99.90;;;;;;5054870;28;20395;-69
2022/09/20 10:13:46;;;;;;;4.93;2.47;;;14.50;99.90;;;;;;5053571;28;20439;-72
2022/09/20 10:16:30;;;;;;;5.90;2.10;;;14.80;99.90;;;;;;5054615;28;20380;-71
2022/09/20 10:19:32;;;;;;;4.60;2.10;;;15.30;99.90;;;;;;5054499;28;20489;-71
2022/09/20 10:22:09;;;;;;;4.03;1.90;;;15.30;99.90;;;;;;5025561;28;20825;-71
2022/09/20 10:24:44;;;;;;;3.43;1.70;;;15.10;99.90;;;;;;5054522;28;20513;-72
2022/09/20 10:27:40;;;;;;;7.73;2.47;;;15.30;99.90;;;;;;5054554;28;20469;-71
2022/09/20 10:30:19;;;;;;;4.90;2.13;;;15.50;99.90;;;;;;5054244;28;20393;-71
2022/09/20 10:33:30;;;;;;;3.80;1.67;;;15.60;99.90;;;;;;5054459;28;20877;-70
2022/09/20 10:36:26;;;;;;;3.20;2.03;;;15.40;99.90;;;;;;5053598;28;20515;-70
2022/09/20 10:39:03;;;;;;;4.67;2.00;;;15.20;99.90;;;;;;5074503;28;20392;-70
2022/09/20 10:45:05;;;;;;;2.97;1.70;;;15.80;99.90;;;;;;5074099;28;20447;-70
2022/09/20 10:47:48;;;;;;;3.43;2.10;;;16.60;99.90;;;;;;5074275;28;20387;-71
2022/09/20 10:50:47;;;;;;;4.93;2.63;;;16.60;99.90;;;;;;5074051;28;20396;-71
2022/09/20 10:53:34;;;;;;;11.17;2.60;;;16.30;99.90;;;;;;5030123;28;20419;-71
2022/09/20 10:56:14;;;;;;;5.37;2.03;;;15.90;99.90;;;;;;5073875;28;20474;-71
2022/09/20 10:58:58;;;;;;;5.60;2.20;;;15.80;99.90;;;;;;5073898;28;20395;-71
2022/09/20 11:01:42;;;;;;;4.20;2.10;;;15.80;99.90;;;;;;5058826;28;20967;-71
2022/09/20 11:04:35;;;;;;;5.13;1.70;;;15.60;99.90;;;;;;5053733;28;21004;-71
2022/09/20 11:07:18;;;;;;;6.40;2.37;;;15.60;99.90;;;;;;5053606;28;20482;-71
2022/09/20 11:10:13;;;;;;;3.20;1.23;;;15.70;99.90;;;;;;5054065;28;20863;-71
2022/09/20 11:12:59;;;;;;;6.40;2.07;;;15.80;99.90;;;;;;5042057;28;20488;-72
2022/09/20 11:15:51;;;;;;;5.20;2.37;;;15.70;99.90;;;;;;5054040;28;20426;-71
2022/09/20 11:18:24;;;;;;;5.60;2.13;;;15.90;99.90;;;;;;5054185;28;20412;-71
2022/09/20 11:21:18;;;;;;;4.67;1.80;;;17.00;99.90;;;;;;5053729;28;20498;-72
2022/09/20 11:23:54;;;;;;;5.23;2.17;;;18.20;98.70;;;;;;5054393;28;20478;-72
2022/09/20 11:26:59;;;;;;;6.37;1.97;;;19.10;96.40;;;;;;5053874;28;20903;-70
2022/09/20 11:29:36;;;;;;;3.97;1.87;;;20.40;94.40;;;;;;5011433;28;20918;-70
2022/09/20 11:32:13;;;;;;;4.00;1.83;;;21.20;91.80;;;;;;5072389;28;20399;-70
2022/09/20 11:34:49;;;;;;;3.87;1.73;;;21.90;88.80;;;;;;5073667;28;20491;-69
2022/09/20 11:37:17;;;;;;;3.77;1.77;;;22.90;85.00;;;;;;5072737;28;20389;-69
2022/09/20 11:39:46;;;;;;;3.17;1.60;;;23.30;78.40;;;;;;5073263;28;20444;-70
2022/09/20 11:42:17;;;;;;;2.90;1.90;;;22.60;78.70;;;;;;5074607;28;20925;-70
2022/09/20 11:44:43;;;;;;;3.60;1.47;;;22.00;80.60;;;;;;5073347;28;20463;-69
2022/09/20 11:47:59;;;;;;;3.37;1.40;;;20.70;81.60;;;;;;5064838;28;20461;-70
2022/09/20 11:50:47;;;;;;;4.40;1.30;;;20.30;83.70;;;;;;4999567;28;20478;-70
2022/09/20 11:53:40;;;;;;;3.23;1.40;;;20.90;84.10;;;;;;5067844;28;20470;-70
2022/09/20 11:56:21;;;;;;;4.27;1.50;;;20.90;83.90;;;;;;5073488;28;20878;-70
2022/09/20 11:58:56;;;;;;;3.30;2.00;;;19.60;88.70;;;;;;5073028;28;20423;-70
2022/09/20 12:01:32;;;;;;;4.73;1.70;;;18.50;91.40;;;;;;5072446;28;20585;-69
2022/09/20 12:04:17;;;;;;;4.10;1.93;;;17.80;91.80;;;;;;5053289;28;20892;-70
2022/09/20 12:06:44;;;;;;;4.37;1.90;;;18.20;91.90;;;;;;5052793;28;20419;-70
2022/09/20 12:09:35;;;;;;;6.23;1.30;;;18.00;91.70;;;;;;5053581;28;20413;-70
2022/09/20 12:12:27;;;;;;;3.53;1.30;;;18.00;92.50;;;;;;5053203;28;20394;-70
2022/09/20 12:14:54;;;;;;;3.97;1.53;;;18.30;91.60;;;;;;5051315;28;20432;-70
2022/09/20 12:17:45;;;;;;;2.60;1.37;;;18.40;88.40;;;;;;5051938;28;20441;-70
2022/09/20 12:20:35;;;;;;;4.60;1.47;;;18.60;85.40;;;;;;5052666;28;20445;-69
2022/09/20 12:23:41;;;;;;;3.07;1.50;;;19.80;79.40;;;;;;5064858;28;20777;-70
2022/09/20 12:26:21;;;;;;;2.80;1.30;;;20.10;80.60;;;;;;5072547;28;20400;-70
2022/09/20 12:29:16;;;;;;;1.57;1.00;;;21.40;76.90;;;;;;5052488;28;20490;-70
2022/09/20 12:31:47;;;;;;;2.97;2.07;;;22.80;72.70;;;;;;5053245;28;20384;-71
2022/09/20 12:34:12;;;;;;;3.33;1.40;;;22.80;70.80;;;;;;5053001;28;20792;-71
2022/09/20 12:36:43;;;;;;;2.40;1.50;;;24.00;70.40;;;;;;5065188;28;20431;-73
2022/09/20 12:39:11;;;;;;;3.30;1.33;;;24.60;64.10;;;;;;5072913;28;20550;-71
2022/09/20 12:41:57;;;;;;;3.37;1.50;;;23.60;64.60;;;;;;5072604;28;20444;-71
2022/09/20 12:44:57;;;;;;;3.90;1.83;;;23.60;65.20;;;;;;5075269;28;20420;-71
2022/09/20 12:47:26;;;;;;;4.90;1.67;;;24.40;65.20;;;;;;5077318;28;20392;-72
2022/09/20 12:52:50;;;;;;;5.33;1.10;;;24.40;65.40;;;;;;5076273;28;20384;-71
2022/09/20 12:55:41;;;;;;;2.13;1.47;;;24.60;66.20;;;;;;5076018;28;20426;-71
2022/09/20 12:58:15;;;;;;;4.27;1.47;;;25.60;64.70;;;;;;5076092;28;20404;-70
2022/09/20 13:00:58;;;;;;;3.00;1.60;;;24.70;62.00;;;;;;5076340;28;20435;-71
2022/09/20 13:03:35;;;;;;;3.93;1.43;;;24.80;63.40;;;;;;5076264;28;20879;-71
2022/09/20 13:06:09;;;;;;;5.07;1.67;;;24.10;63.60;;;;;;5074343;28;20927;-72
2022/09/20 13:08:59;;;;;;;7.10;1.80;;;22.90;63.50;;;;;;5075976;28;20392;-72
2022/09/20 13:11:40;;;;;;;3.60;1.50;;;21.50;65.50;;;;;;5077772;28;20404;-72
2022/09/20 13:14:09;;;;;;;2.83;1.00;;;19.80;69.40;;;;;;5077589;28;20804;-71
2022/09/20 13:16:35;;;;;;;2.90;1.40;;;20.20;70.40;;;;;;5075870;28;20917;-72
2022/09/20 13:19:44;;;;;;;4.77;1.83;;;21.40;66.70;;;;;;5076417;28;20412;-71
2022/09/20 13:22:31;;;;;;;3.30;1.40;;;22.10;65.20;;;;;;5063654;28;20456;-72
2022/09/20 13:25:01;;;;;;;3.57;1.57;;;23.40;61.60;;;;;;5076436;28;20418;-72
2022/09/20 13:27:33;;;;;;;2.90;1.50;;;24.20;60.80;;;;;;5075957;28;20393;-72
2022/09/20 13:30:14;;;;;;;1.37;0.97;;;23.70;59.40;;;;;;5075703;28;20377;-73
2022/09/20 13:32:41;;;;;;;3.87;1.73;;;22.80;63.20;;;;;;5076022;28;20426;-72
2022/09/20 13:35:17;;;;;;;3.63;1.70;;;21.50;64.50;;;;;;5075679;28;20436;-71
2022/09/20 13:37:53;;;;;;;6.17;2.23;;;20.90;68.10;;;;;;5055336;28;20417;-71
2022/09/20 13:40:22;;;;;;;2.27;1.30;;;20.50;70.30;;;;;;5055273;28;20447;-72
2022/09/20 13:42:50;;;;;;;3.90;1.60;;;19.90;72.40;;;;;;5055205;28;20413;-73
2022/09/20 13:45:16;;;;;;;2.80;1.50;;;19.60;73.70;;;;;;5055233;28;20942;-71
2022/09/20 13:47:46;;;;;;;3.77;2.37;;;19.00;76.00;;;;;;5055145;28;20401;-71
2022/09/20 13:50:19;;;;;;;2.17;1.60;;;18.80;76.80;;;;;;5055141;28;20405;-71
2022/09/20 13:52:51;;;;;;;2.30;1.97;;;18.90;77.70;;;;;;5054926;28;20384;-71
2022/09/20 13:55:32;;;;;;;2.23;1.73;;;19.50;76.00;;;;;;5053925;28;20425;-70
2022/09/20 13:58:08;;;;;;;2.63;1.70;;;19.30;76.90;;;;;;5055099;28;20907;-72
2022/09/20 14:00:36;;;;;;;3.97;3.30;;;18.70;77.80;;;;;;5061648;28;20448;-72
2022/09/20 14:03:03;;;;;;;19.77;14.47;;;18.40;80.40;;;;;;5075084;28;20816;-71